createdAt,value
2022-10-19T00:00:04.388Z,14.12
2022-10-19T00:01:04.466Z,14.12
2022-10-19T00:02:03.649Z,14.12
2022-10-19T00:03:03.678Z,14.12
2022-10-19T00:04:04.996Z,14.06
2022-10-19T00:05:03.826Z,14.06
2022-10-19T00:06:03.989Z,14.06
2022-10-19T00:07:03.824Z,14.06
2022-10-19T00:08:03.826Z,14.00
2022-10-19T00:09:03.914Z,14.00
2022-10-19T00:10:03.920Z,14.00
2022-10-19T00:11:04.144Z,14.00
2022-10-19T00:12:04.142Z,14.00
2022-10-19T00:13:04.231Z,13.94
2022-10-19T00:14:04.391Z,13.94
2022-10-19T00:15:03.512Z,13.94
2022-10-19T00:16:04.916Z,13.94
2022-10-19T00:17:03.587Z,13.94
2022-10-19T00:18:03.666Z,13.94
2022-10-19T00:19:03.663Z,13.94
2022-10-19T00:20:03.748Z,13.94
2022-10-19T00:21:03.756Z,13.94
2022-10-19T00:22:03.746Z,13.88
2022-10-19T00:23:03.915Z,13.88
2022-10-19T00:24:03.901Z,13.94
2022-10-19T00:25:03.906Z,13.94
2022-10-19T00:26:04.783Z,13.94
2022-10-19T00:27:03.986Z,13.94
2022-10-19T00:28:03.917Z,13.94
2022-10-19T00:29:04.008Z,13.94
2022-10-19T00:30:04.138Z,13.94
2022-10-19T00:31:04.152Z,13.94
2022-10-19T00:32:04.148Z,13.94
2022-10-19T00:33:04.139Z,13.88
2022-10-19T00:34:04.216Z,13.88
2022-10-19T00:35:04.219Z,13.88
2022-10-19T00:36:04.309Z,13.94
2022-10-19T00:37:03.542Z,13.88
2022-10-19T00:38:03.505Z,13.88
2022-10-19T00:39:03.583Z,13.94
2022-10-19T00:40:03.661Z,13.88
2022-10-19T00:41:03.595Z,13.88
2022-10-19T00:42:03.764Z,13.88
2022-10-19T00:43:03.743Z,13.88
2022-10-19T00:44:03.906Z,13.88
2022-10-19T00:45:03.905Z,13.88
2022-10-19T00:46:04.067Z,13.88
2022-10-19T00:47:04.230Z,13.88
2022-10-19T00:48:04.311Z,13.88
2022-10-19T00:49:04.943Z,13.88
2022-10-19T00:50:04.357Z,13.88
2022-10-19T00:51:04.385Z,13.81
2022-10-19T00:52:04.397Z,13.81
2022-10-19T00:53:03.591Z,13.81
2022-10-19T00:54:03.592Z,13.81
2022-10-19T00:55:03.581Z,13.75
2022-10-19T00:56:03.680Z,13.75
2022-10-19T00:57:03.669Z,13.75
2022-10-19T00:58:03.671Z,13.75
2022-10-19T00:59:03.664Z,13.75
2022-10-19T01:00:04.146Z,13.75
2022-10-19T01:01:03.596Z,13.75
2022-10-19T01:02:03.669Z,13.75
2022-10-19T01:03:03.663Z,13.69
2022-10-19T01:04:03.821Z,13.69
2022-10-19T01:05:03.846Z,13.69
2022-10-19T01:06:03.906Z,13.62
2022-10-19T01:07:03.912Z,13.62
2022-10-19T01:08:03.900Z,13.56
2022-10-19T01:09:04.020Z,13.56
2022-10-19T01:10:04.390Z,13.56
2022-10-19T01:11:04.389Z,13.56
2022-10-19T01:12:04.385Z,13.56
2022-10-19T01:13:04.382Z,13.56
2022-10-19T01:14:04.462Z,13.56
2022-10-19T01:15:03.584Z,13.50
2022-10-19T01:16:03.592Z,13.50
2022-10-19T01:17:04.221Z,13.50
2022-10-19T01:18:04.306Z,13.50
2022-10-19T01:19:04.303Z,13.44
2022-10-19T01:20:04.473Z,13.44
2022-10-19T01:21:03.430Z,13.44
2022-10-19T01:22:03.506Z,13.44
2022-10-19T01:23:03.669Z,13.44
2022-10-19T01:24:03.691Z,13.38
2022-10-19T01:25:03.754Z,13.31
2022-10-19T01:26:03.745Z,13.25
2022-10-19T01:27:03.738Z,13.25
2022-10-19T01:28:03.737Z,13.25
2022-10-19T01:29:04.022Z,13.25
2022-10-19T01:30:03.983Z,13.25
2022-10-19T01:31:03.979Z,13.19
2022-10-19T01:32:03.674Z,13.19
2022-10-19T01:33:03.750Z,13.19
2022-10-19T01:34:03.755Z,13.19
2022-10-19T01:35:03.747Z,13.19
2022-10-19T01:36:03.897Z,13.19
2022-10-19T01:37:03.817Z,13.19
2022-10-19T01:38:04.076Z,13.19
2022-10-19T01:39:04.011Z,13.19
2022-10-19T01:40:04.068Z,13.12
2022-10-19T01:41:04.062Z,13.12
2022-10-19T01:42:04.305Z,13.12
2022-10-19T01:43:04.418Z,13.06
2022-10-19T01:44:03.500Z,13.06
2022-10-19T01:45:03.608Z,13.06
2022-10-19T01:46:03.592Z,13.06
2022-10-19T01:47:03.669Z,13.00
2022-10-19T01:48:03.660Z,13.00
2022-10-19T01:49:03.836Z,13.00
2022-10-19T01:50:03.905Z,13.00
2022-10-19T01:51:03.814Z,13.00
2022-10-19T01:52:03.935Z,13.00
2022-10-19T01:53:03.988Z,13.00
2022-10-19T01:54:03.985Z,12.94
2022-10-19T01:55:03.977Z,12.94
2022-10-19T01:56:03.987Z,12.94
2022-10-19T01:57:03.983Z,12.94
2022-10-19T01:58:06.261Z,12.88
2022-10-19T01:59:04.152Z,12.88
2022-10-19T02:00:04.145Z,12.88
2022-10-19T02:01:04.277Z,12.88
2022-10-19T02:02:04.155Z,12.81
2022-10-19T02:03:04.314Z,12.81
2022-10-19T02:04:04.227Z,12.81
2022-10-19T02:05:04.308Z,12.81
2022-10-19T02:06:04.302Z,12.81
2022-10-19T02:07:04.389Z,12.81
2022-10-19T02:08:04.386Z,12.81
2022-10-19T02:09:03.493Z,12.81
2022-10-19T02:10:03.630Z,12.81
2022-10-19T02:11:03.664Z,12.81
2022-10-19T02:12:03.680Z,12.81
2022-10-19T02:13:03.696Z,12.81
2022-10-19T02:14:03.661Z,12.75
2022-10-19T02:15:03.817Z,12.75
2022-10-19T02:16:03.828Z,12.75
2022-10-19T02:17:03.914Z,12.75
2022-10-19T02:18:03.902Z,12.75
2022-10-19T02:19:03.930Z,12.75
2022-10-19T02:20:03.988Z,12.75
2022-10-19T02:21:04.071Z,12.75
2022-10-19T02:22:04.054Z,12.75
2022-10-19T02:23:04.150Z,12.75
2022-10-19T02:24:04.071Z,12.75
2022-10-19T02:25:04.067Z,12.75
2022-10-19T02:26:04.144Z,12.75
2022-10-19T02:27:04.140Z,12.75
2022-10-19T02:28:04.223Z,12.69
2022-10-19T02:29:04.229Z,12.69
2022-10-19T02:30:04.227Z,12.69
2022-10-19T02:31:04.230Z,12.62
2022-10-19T02:32:04.301Z,12.62
2022-10-19T02:33:04.304Z,12.62
2022-10-19T02:34:04.402Z,12.62
2022-10-19T02:35:03.495Z,12.62
2022-10-19T02:36:03.586Z,12.62
2022-10-19T02:37:03.586Z,12.56
2022-10-19T02:38:03.746Z,12.56
2022-10-19T02:39:03.669Z,12.56
2022-10-19T02:40:03.758Z,12.56
2022-10-19T02:41:03.663Z,12.56
2022-10-19T02:42:03.829Z,12.56
2022-10-19T02:43:03.816Z,12.56
2022-10-19T02:44:03.824Z,12.56
2022-10-19T02:45:04.139Z,12.50
2022-10-19T02:46:04.157Z,12.50
2022-10-19T02:47:04.057Z,12.50
2022-10-19T02:48:04.069Z,12.50
2022-10-19T02:49:04.152Z,12.44
2022-10-19T02:50:04.144Z,12.44
2022-10-19T02:51:04.139Z,12.44
2022-10-19T02:52:03.821Z,12.44
2022-10-19T02:53:03.819Z,12.44
2022-10-19T02:54:04.961Z,12.44
2022-10-19T02:55:03.741Z,12.44
2022-10-19T02:56:03.827Z,12.44
2022-10-19T02:57:03.825Z,12.44
2022-10-19T02:58:03.817Z,12.44
2022-10-19T02:59:03.990Z,12.44
2022-10-19T03:00:03.982Z,12.38
2022-10-19T03:01:04.014Z,12.44
2022-10-19T03:02:04.075Z,12.38
2022-10-19T03:03:03.819Z,12.38
2022-10-19T03:04:03.898Z,12.38
2022-10-19T03:05:03.990Z,12.31
2022-10-19T03:06:04.064Z,12.31
2022-10-19T03:07:04.145Z,12.31
2022-10-19T03:08:04.142Z,12.31
2022-10-19T03:09:04.307Z,12.31
2022-10-19T03:10:04.301Z,12.31
2022-10-19T03:11:04.376Z,12.31
2022-10-19T03:12:04.388Z,12.31
2022-10-19T03:13:04.462Z,12.31
2022-10-19T03:14:03.505Z,12.31
2022-10-19T03:15:03.591Z,12.19
2022-10-19T03:16:03.520Z,12.19
2022-10-19T03:17:03.500Z,12.19
2022-10-19T03:18:03.572Z,12.19
2022-10-19T03:19:03.577Z,12.19
2022-10-19T03:20:03.654Z,12.19
2022-10-19T03:21:03.751Z,12.25
2022-10-19T03:22:03.828Z,12.19
2022-10-19T03:23:03.858Z,12.19
2022-10-19T03:24:03.907Z,12.19
2022-10-19T03:25:04.068Z,12.19
2022-10-19T03:26:04.930Z,12.19
2022-10-19T03:27:04.138Z,12.25
2022-10-19T03:28:04.223Z,12.25
2022-10-19T03:29:04.243Z,12.19
2022-10-19T03:30:04.226Z,12.25
2022-10-19T03:31:04.238Z,12.19
2022-10-19T03:32:04.299Z,12.19
2022-10-19T03:33:04.383Z,12.19
2022-10-19T03:34:04.377Z,12.19
2022-10-19T03:35:03.497Z,12.19
2022-10-19T03:36:03.608Z,12.12
2022-10-19T03:37:03.695Z,12.19
2022-10-19T03:38:03.742Z,12.12
2022-10-19T03:39:03.814Z,12.12
2022-10-19T03:40:03.924Z,12.12
2022-10-19T03:41:04.056Z,12.12
2022-10-19T03:42:04.157Z,12.12
2022-10-19T03:43:04.068Z,12.06
2022-10-19T03:44:04.142Z,12.06
2022-10-19T03:45:04.218Z,12.06
2022-10-19T03:46:03.418Z,12.06
2022-10-19T03:47:04.007Z,12.06
2022-10-19T03:48:03.987Z,12.06
2022-10-19T03:49:04.058Z,12.00
2022-10-19T03:50:04.223Z,12.00
2022-10-19T03:51:04.304Z,12.00
2022-10-19T03:52:04.379Z,12.00
2022-10-19T03:53:04.312Z,11.94
2022-10-19T03:54:04.480Z,11.94
2022-10-19T03:55:04.380Z,11.94
2022-10-19T03:56:03.509Z,11.94
2022-10-19T03:57:03.425Z,11.94
2022-10-19T03:58:03.506Z,11.94
2022-10-19T03:59:03.505Z,11.94
2022-10-19T04:00:03.591Z,11.94
2022-10-19T04:01:03.787Z,11.94
2022-10-19T04:02:03.593Z,11.94
2022-10-19T04:03:03.755Z,11.94
2022-10-19T04:04:03.750Z,11.94
2022-10-19T04:05:03.745Z,11.94
2022-10-19T04:06:03.818Z,11.94
2022-10-19T04:07:03.816Z,11.88
2022-10-19T04:08:03.811Z,11.88
2022-10-19T04:09:03.904Z,11.88
2022-10-19T04:10:03.984Z,11.88
2022-10-19T04:11:03.982Z,11.88
2022-10-19T04:12:04.060Z,11.88
2022-10-19T04:13:04.150Z,11.88
2022-10-19T04:14:04.527Z,11.88
2022-10-19T04:15:03.512Z,11.88
2022-10-19T04:16:03.581Z,11.88
2022-10-19T04:17:04.383Z,11.88
2022-10-19T04:18:04.381Z,11.88
2022-10-19T04:19:04.665Z,11.88
2022-10-19T04:20:04.461Z,11.88
2022-10-19T04:21:04.377Z,11.81
2022-10-19T04:22:03.496Z,11.81
2022-10-19T04:23:03.565Z,11.81
2022-10-19T04:24:03.590Z,11.88
2022-10-19T04:25:04.004Z,11.88
2022-10-19T04:26:03.741Z,11.81
2022-10-19T04:27:03.770Z,11.81
2022-10-19T04:28:03.741Z,11.81
2022-10-19T04:29:04.044Z,11.81
2022-10-19T04:30:03.935Z,11.81
2022-10-19T04:31:04.147Z,11.81
2022-10-19T04:32:04.234Z,11.81
2022-10-19T04:33:04.395Z,11.81
2022-10-19T04:34:04.389Z,11.81
2022-10-19T04:35:04.468Z,11.81
2022-10-19T04:36:04.466Z,11.81
2022-10-19T04:37:04.469Z,11.81
2022-10-19T04:38:03.583Z,11.88
2022-10-19T04:39:03.676Z,11.88
2022-10-19T04:40:03.735Z,11.81
2022-10-19T04:41:03.830Z,11.81
2022-10-19T04:42:03.836Z,11.81
2022-10-19T04:43:03.842Z,11.81
2022-10-19T04:44:03.829Z,11.81
2022-10-19T04:45:03.833Z,11.81
2022-10-19T04:46:03.903Z,11.81
2022-10-19T04:47:04.062Z,11.81
2022-10-19T04:48:04.141Z,11.81
2022-10-19T04:49:04.233Z,11.81
2022-10-19T04:50:04.388Z,11.81
2022-10-19T04:51:04.461Z,11.88
2022-10-19T04:52:04.397Z,11.88
2022-10-19T04:53:03.585Z,11.81
2022-10-19T04:54:03.665Z,11.81
2022-10-19T04:55:03.747Z,11.81
2022-10-19T04:56:03.672Z,11.81
2022-10-19T04:57:03.683Z,11.81
2022-10-19T04:58:03.742Z,11.81
2022-10-19T04:59:03.901Z,11.81
2022-10-19T05:00:03.901Z,11.81
2022-10-19T05:01:03.998Z,11.88
2022-10-19T05:02:03.990Z,11.88
2022-10-19T05:03:03.895Z,11.88
2022-10-19T05:04:03.899Z,11.81
2022-10-19T05:05:04.071Z,11.81
2022-10-19T05:06:04.059Z,11.81
2022-10-19T05:07:04.151Z,11.81
2022-10-19T05:08:04.219Z,11.81
2022-10-19T05:09:04.227Z,11.81
2022-10-19T05:10:04.156Z,11.81
2022-10-19T05:11:04.239Z,11.88
2022-10-19T05:12:04.147Z,11.88
2022-10-19T05:13:04.303Z,11.88
2022-10-19T05:14:04.296Z,11.88
2022-10-19T05:15:04.406Z,11.88
2022-10-19T05:16:04.387Z,11.88
2022-10-19T05:17:04.385Z,11.88
2022-10-19T05:18:03.510Z,11.88
2022-10-19T05:19:03.589Z,11.88
2022-10-19T05:20:03.575Z,11.88
2022-10-19T05:21:03.576Z,11.88
2022-10-19T05:22:03.582Z,11.88
2022-10-19T05:23:04.752Z,11.88
2022-10-19T05:24:03.749Z,11.88
2022-10-19T05:25:03.751Z,11.88
2022-10-19T05:26:03.828Z,11.88
2022-10-19T05:27:03.823Z,11.81
2022-10-19T05:28:03.497Z,11.81
2022-10-19T05:29:03.603Z,11.81
2022-10-19T05:30:03.504Z,11.81
2022-10-19T05:31:03.668Z,11.81
2022-10-19T05:32:03.582Z,11.81
2022-10-19T05:33:03.655Z,11.81
2022-10-19T05:34:04.066Z,11.81
2022-10-19T05:35:03.613Z,11.81
2022-10-19T05:36:05.270Z,11.81
2022-10-19T05:37:04.471Z,11.81
2022-10-19T05:38:03.516Z,11.81
2022-10-19T05:39:03.590Z,11.81
2022-10-19T05:40:03.662Z,11.81
2022-10-19T05:41:03.744Z,11.81
2022-10-19T05:42:03.747Z,11.81
2022-10-19T05:43:03.750Z,11.81
2022-10-19T05:44:03.986Z,11.81
2022-10-19T05:45:04.167Z,11.81
2022-10-19T05:46:04.228Z,11.81
2022-10-19T05:47:04.298Z,11.81
2022-10-19T05:48:04.307Z,11.81
2022-10-19T05:49:04.467Z,11.81
2022-10-19T05:50:03.590Z,11.81
2022-10-19T05:51:03.520Z,11.75
2022-10-19T05:52:03.596Z,11.75
2022-10-19T05:53:03.508Z,11.75
2022-10-19T05:54:03.676Z,11.75
2022-10-19T05:55:03.660Z,11.75
2022-10-19T05:56:03.738Z,11.75
2022-10-19T05:57:03.900Z,11.75
2022-10-19T05:58:03.983Z,11.75
2022-10-19T05:59:03.991Z,11.75
2022-10-19T06:00:04.018Z,11.69
2022-10-19T06:01:04.070Z,11.69
2022-10-19T06:02:04.147Z,11.69
2022-10-19T06:03:03.988Z,11.69
2022-10-19T06:04:03.942Z,11.69
2022-10-19T06:05:04.072Z,11.69
2022-10-19T06:06:04.067Z,11.69
2022-10-19T06:07:04.144Z,11.69
2022-10-19T06:08:04.222Z,11.62
2022-10-19T06:09:04.236Z,11.62
2022-10-19T06:10:04.142Z,11.69
2022-10-19T06:11:04.385Z,11.69
2022-10-19T06:12:04.383Z,11.69
2022-10-19T06:13:03.597Z,11.69
2022-10-19T06:14:03.604Z,11.69
2022-10-19T06:15:03.746Z,11.69
2022-10-19T06:16:03.905Z,11.62
2022-10-19T06:17:03.990Z,11.62
2022-10-19T06:18:04.080Z,11.62
2022-10-19T06:19:04.300Z,11.62
2022-10-19T06:20:04.468Z,11.62
2022-10-19T06:21:03.520Z,11.62
2022-10-19T06:22:03.668Z,11.62
2022-10-19T06:23:03.746Z,11.62
2022-10-19T06:24:03.749Z,11.62
2022-10-19T06:25:03.831Z,11.62
2022-10-19T06:26:03.751Z,11.56
2022-10-19T06:27:03.845Z,11.56
2022-10-19T06:28:03.824Z,11.62
2022-10-19T06:29:03.748Z,11.56
2022-10-19T06:30:03.744Z,11.56
2022-10-19T06:31:05.953Z,11.56
2022-10-19T06:32:03.830Z,11.50
2022-10-19T06:34:04.079Z,11.50
2022-10-19T06:35:04.236Z,11.50
2022-10-19T06:36:04.236Z,11.50
2022-10-19T06:37:04.327Z,11.50
2022-10-19T06:38:04.399Z,11.50
2022-10-19T06:39:04.489Z,11.50
2022-10-19T06:40:06.153Z,11.50
2022-10-19T06:41:04.463Z,11.50
2022-10-19T06:42:03.421Z,11.50
2022-10-19T06:43:03.590Z,11.50
2022-10-19T06:44:03.582Z,11.50
2022-10-19T06:45:03.680Z,11.50
2022-10-19T06:46:03.685Z,11.44
2022-10-19T06:47:03.684Z,11.44
2022-10-19T06:48:05.136Z,11.44
2022-10-19T06:49:03.752Z,11.44
2022-10-19T06:50:04.064Z,11.44
2022-10-19T06:51:06.101Z,11.38
2022-10-19T06:52:04.153Z,11.38
2022-10-19T06:53:04.144Z,11.38
2022-10-19T06:54:04.237Z,11.38
2022-10-19T06:55:04.325Z,11.38
2022-10-19T06:56:04.301Z,11.44
2022-10-19T06:57:04.399Z,11.44
2022-10-19T06:58:03.516Z,11.44
2022-10-19T06:59:03.673Z,11.44
2022-10-19T07:00:03.582Z,11.44
2022-10-19T07:01:03.786Z,11.44
2022-10-19T07:02:03.736Z,11.38
2022-10-19T07:03:03.821Z,11.38
2022-10-19T07:04:03.911Z,11.38
2022-10-19T07:05:06.162Z,11.38
2022-10-19T07:06:03.917Z,11.44
2022-10-19T07:07:03.914Z,11.50
2022-10-19T07:08:03.874Z,11.44
2022-10-19T07:09:03.826Z,11.44
2022-10-19T07:10:03.919Z,11.44
2022-10-19T07:11:03.985Z,11.44
2022-10-19T07:12:03.903Z,11.44
2022-10-19T07:13:04.201Z,11.44
2022-10-19T07:14:04.066Z,11.50
2022-10-19T07:15:04.259Z,11.50
2022-10-19T07:16:04.314Z,11.50
2022-10-19T07:17:04.393Z,11.56
2022-10-19T07:18:04.383Z,11.56
2022-10-19T07:19:04.464Z,11.62
2022-10-19T07:20:03.502Z,11.62
2022-10-19T07:21:03.686Z,11.62
2022-10-19T07:22:03.597Z,11.62
2022-10-19T07:23:03.672Z,11.62
2022-10-19T07:24:03.911Z,11.62
2022-10-19T07:25:03.831Z,11.62
2022-10-19T07:26:03.902Z,11.62
2022-10-19T07:27:04.147Z,11.69
2022-10-19T07:28:04.309Z,11.69
2022-10-19T07:29:04.229Z,11.75
2022-10-19T07:30:04.310Z,11.75
2022-10-19T07:31:04.306Z,11.75
2022-10-19T07:32:04.473Z,11.81
2022-10-19T07:33:04.514Z,11.81
2022-10-19T07:34:03.687Z,11.81
2022-10-19T07:35:03.747Z,11.88
2022-10-19T07:36:03.762Z,11.88
2022-10-19T07:37:03.747Z,11.88
2022-10-19T07:38:03.836Z,11.94
2022-10-19T07:39:03.824Z,11.94
2022-10-19T07:40:03.743Z,11.94
2022-10-19T07:41:03.827Z,11.94
2022-10-19T07:42:03.919Z,11.94
2022-10-19T07:43:03.909Z,11.94
2022-10-19T07:44:04.066Z,11.94
2022-10-19T07:45:04.145Z,11.94
2022-10-19T07:46:04.059Z,11.94
2022-10-19T07:47:04.074Z,11.94
2022-10-19T07:48:04.064Z,11.94
2022-10-19T07:49:04.232Z,11.94
2022-10-19T07:50:04.320Z,11.94
2022-10-19T07:51:04.383Z,11.94
2022-10-19T07:52:03.607Z,12.00
2022-10-19T07:53:03.500Z,11.94
2022-10-19T07:54:03.671Z,12.00
2022-10-19T07:55:03.664Z,12.00
2022-10-19T07:56:03.757Z,12.00
2022-10-19T07:57:03.669Z,12.00
2022-10-19T07:58:03.743Z,12.06
2022-10-19T07:59:03.758Z,12.06
2022-10-19T08:00:03.752Z,12.06
2022-10-19T08:01:03.753Z,12.06
2022-10-19T08:02:03.790Z,12.06
2022-10-19T08:03:31.459Z,12.12
2022-10-19T08:05:07.589Z,12.12
2022-10-19T08:05:25.433Z,12.12
2022-10-19T08:06:04.402Z,12.12
2022-10-19T08:07:04.396Z,12.12
2022-10-19T08:08:04.301Z,12.12
2022-10-19T08:09:04.415Z,12.19
2022-10-19T08:10:04.475Z,12.19
2022-10-19T08:11:04.466Z,12.19
2022-10-19T08:12:04.390Z,12.19
2022-10-19T08:13:04.472Z,12.25
2022-10-19T08:14:03.689Z,12.25
2022-10-19T08:15:03.592Z,12.25
2022-10-19T08:16:03.670Z,12.19
2022-10-19T08:17:03.600Z,12.19
2022-10-19T08:18:03.751Z,12.19
2022-10-19T08:19:03.660Z,12.19
2022-10-19T08:20:03.671Z,12.19
2022-10-19T08:21:03.748Z,12.25
2022-10-19T08:22:03.663Z,12.25
2022-10-19T08:23:03.750Z,12.31
2022-10-19T08:24:03.825Z,12.31
2022-10-19T08:25:03.822Z,12.31
2022-10-19T08:26:03.994Z,12.38
2022-10-19T08:27:03.897Z,12.38
2022-10-19T08:28:03.907Z,12.38
2022-10-19T08:29:04.146Z,12.38
2022-10-19T08:30:04.075Z,12.38
2022-10-19T08:31:04.074Z,12.38
2022-10-19T08:32:04.065Z,12.31
2022-10-19T08:33:04.221Z,12.31
2022-10-19T08:34:04.153Z,12.25
2022-10-19T08:35:07.145Z,12.25
2022-10-19T08:36:04.170Z,12.19
2022-10-19T08:37:06.864Z,12.19
2022-10-19T08:38:04.063Z,12.19
2022-10-19T08:39:04.150Z,12.19
2022-10-19T08:40:04.317Z,12.25
2022-10-19T08:41:04.307Z,12.31
2022-10-19T08:42:04.478Z,12.31
2022-10-19T08:43:04.462Z,12.38
2022-10-19T08:44:05.024Z,12.44
2022-10-19T08:45:03.586Z,12.44
2022-10-19T08:46:03.505Z,12.44
2022-10-19T08:47:03.880Z,12.50
2022-10-19T08:48:03.502Z,12.50
2022-10-19T08:49:03.512Z,12.50
2022-10-19T08:50:03.505Z,12.50
2022-10-19T08:51:03.602Z,12.50
2022-10-19T08:52:03.510Z,12.50
2022-10-19T08:53:03.503Z,12.50
2022-10-19T08:54:03.584Z,12.56
2022-10-19T08:55:03.585Z,12.56
2022-10-19T08:56:04.413Z,12.62
2022-10-19T08:57:03.667Z,12.62
2022-10-19T08:58:03.592Z,12.62
2022-10-19T08:59:03.664Z,12.62
2022-10-19T09:00:03.749Z,12.62
2022-10-19T09:01:03.668Z,12.62
2022-10-19T09:02:03.662Z,12.62
2022-10-19T09:03:03.741Z,12.62
2022-10-19T09:04:03.744Z,12.69
2022-10-19T09:05:03.841Z,12.62
2022-10-19T09:06:04.228Z,12.69
2022-10-19T09:07:04.312Z,12.75
2022-10-19T09:08:04.313Z,12.75
2022-10-19T09:09:04.458Z,12.75
2022-10-19T09:10:04.303Z,12.75
2022-10-19T09:11:04.386Z,12.81
2022-10-19T09:12:04.393Z,12.81
2022-10-19T09:13:03.508Z,12.81
2022-10-19T09:14:05.567Z,12.81
2022-10-19T09:15:04.475Z,12.81
2022-10-19T09:16:03.508Z,12.75
2022-10-19T09:17:03.660Z,12.81
2022-10-19T09:18:03.501Z,12.81
2022-10-19T09:19:03.707Z,12.81
2022-10-19T09:20:03.672Z,12.88
2022-10-19T09:21:03.582Z,12.88
2022-10-19T09:22:03.664Z,12.88
2022-10-19T09:23:03.591Z,12.88
2022-10-19T09:24:03.667Z,12.88
2022-10-19T09:25:03.829Z,12.94
2022-10-19T09:26:03.817Z,12.94
2022-10-19T09:27:03.823Z,12.94
2022-10-19T09:28:03.838Z,13.00
2022-10-19T09:29:03.749Z,13.00
2022-10-19T09:30:03.841Z,12.94
2022-10-19T09:31:03.823Z,13.00
2022-10-19T09:32:03.907Z,13.00
2022-10-19T09:33:03.914Z,13.00
2022-10-19T09:34:03.906Z,13.00
2022-10-19T09:35:03.980Z,13.06
2022-10-19T09:36:04.152Z,13.06
2022-10-19T09:37:04.276Z,13.06
2022-10-19T09:38:04.313Z,13.06
2022-10-19T09:39:04.469Z,13.12
2022-10-19T09:40:03.611Z,13.12
2022-10-19T09:41:03.589Z,13.19
2022-10-19T09:42:03.602Z,13.19
2022-10-19T09:43:03.583Z,13.19
2022-10-19T09:44:03.579Z,13.19
2022-10-19T09:45:03.593Z,13.19
2022-10-19T09:46:07.810Z,13.19
2022-10-19T09:47:03.585Z,13.19
2022-10-19T09:48:07.029Z,13.12
2022-10-19T09:49:03.909Z,13.12
2022-10-19T09:50:03.875Z,13.12
2022-10-19T09:51:03.832Z,13.12
2022-10-19T09:52:03.899Z,13.19
2022-10-19T09:53:03.991Z,13.19
2022-10-19T09:54:03.988Z,13.19
2022-10-19T09:55:04.067Z,13.25
2022-10-19T09:56:04.057Z,13.25
2022-10-19T09:57:04.287Z,13.25
2022-10-19T09:58:04.226Z,13.25
2022-10-19T09:59:04.249Z,13.25
2022-10-19T10:00:04.312Z,13.25
2022-10-19T10:01:04.310Z,13.31
2022-10-19T10:02:04.306Z,13.31
2022-10-19T10:03:04.312Z,13.38
2022-10-19T10:04:04.314Z,13.44
2022-10-19T10:05:04.347Z,13.50
2022-10-19T10:06:04.378Z,13.50
2022-10-19T10:07:04.423Z,13.50
2022-10-19T10:08:04.461Z,13.56
2022-10-19T10:09:03.668Z,13.56
2022-10-19T10:10:03.669Z,13.56
2022-10-19T10:11:03.586Z,13.56
2022-10-19T10:12:03.671Z,13.56
2022-10-19T10:13:03.668Z,13.50
2022-10-19T10:14:04.968Z,13.44
2022-10-19T10:15:03.826Z,13.44
2022-10-19T10:16:03.914Z,13.44
2022-10-19T10:17:04.070Z,13.38
2022-10-19T10:18:04.226Z,13.31
2022-10-19T10:19:04.412Z,13.31
2022-10-19T10:20:04.398Z,13.25
2022-10-19T10:21:05.837Z,13.25
2022-10-19T10:22:04.413Z,13.25
2022-10-19T10:23:04.393Z,13.25
2022-10-19T10:24:04.386Z,13.31
2022-10-19T10:25:04.310Z,13.38
2022-10-19T10:26:04.303Z,13.44
2022-10-19T10:27:04.447Z,13.44
2022-10-19T10:28:04.477Z,13.50
2022-10-19T10:29:03.509Z,13.50
2022-10-19T10:30:03.670Z,13.50
2022-10-19T10:31:03.501Z,13.50
2022-10-19T10:32:03.582Z,13.56
2022-10-19T10:33:08.066Z,13.50
2022-10-19T10:34:07.542Z,13.56
2022-10-19T10:35:03.838Z,13.56
2022-10-19T10:36:03.829Z,13.56
2022-10-19T10:37:03.859Z,13.56
2022-10-19T10:38:03.773Z,13.56
2022-10-19T10:39:03.845Z,13.56
2022-10-19T10:40:05.006Z,13.62
2022-10-19T10:41:03.830Z,13.62
2022-10-19T10:42:03.827Z,13.62
2022-10-19T10:43:03.983Z,13.56
2022-10-19T10:44:04.727Z,13.56
2022-10-19T10:45:04.152Z,13.62
2022-10-19T10:46:04.308Z,13.62
2022-10-19T10:47:04.383Z,13.62
2022-10-19T10:48:04.418Z,13.62
2022-10-19T10:49:03.533Z,13.69
2022-10-19T10:50:03.593Z,13.69
2022-10-19T10:51:03.498Z,13.69
2022-10-19T10:52:03.590Z,13.69
2022-10-19T10:53:03.599Z,13.75
2022-10-19T10:54:03.664Z,13.75
2022-10-19T10:55:03.842Z,13.81
2022-10-19T10:56:03.670Z,13.81
2022-10-19T10:57:04.344Z,13.81
2022-10-19T10:58:03.838Z,13.88
2022-10-19T10:59:03.840Z,13.88
2022-10-19T11:00:03.824Z,13.88
2022-10-19T11:01:05.301Z,13.88
2022-10-19T11:02:04.022Z,13.88
2022-10-19T11:03:03.897Z,13.88
2022-10-19T11:04:03.902Z,13.88
2022-10-19T11:05:03.983Z,13.88
2022-10-19T11:06:04.066Z,13.75
2022-10-19T11:07:04.160Z,13.75
2022-10-19T11:08:04.147Z,13.81
2022-10-19T11:09:04.302Z,13.81
2022-10-19T11:10:04.446Z,13.81
2022-10-19T11:11:03.520Z,13.81
2022-10-19T11:12:04.078Z,13.88
2022-10-19T11:13:03.984Z,13.88
2022-10-19T11:14:04.070Z,13.94
2022-10-19T11:15:04.170Z,13.94
2022-10-19T11:16:04.154Z,13.94
2022-10-19T11:17:04.149Z,13.94
2022-10-19T11:18:04.234Z,13.94
2022-10-19T11:19:04.289Z,13.94
2022-10-19T11:20:04.325Z,13.94
2022-10-19T11:21:04.311Z,13.94
2022-10-19T11:22:04.309Z,13.94
2022-10-19T11:23:04.312Z,13.94
2022-10-19T11:24:04.292Z,13.81
2022-10-19T11:25:04.303Z,13.88
2022-10-19T11:26:04.483Z,13.88
2022-10-19T11:27:03.527Z,13.88
2022-10-19T11:28:03.594Z,13.88
2022-10-19T11:29:03.597Z,13.88
2022-10-19T11:30:03.682Z,13.94
2022-10-19T11:31:03.669Z,13.88
2022-10-19T11:32:03.663Z,13.88
2022-10-19T11:33:03.748Z,13.81
2022-10-19T11:34:03.659Z,13.81
2022-10-19T11:35:03.741Z,13.81
2022-10-19T11:36:03.744Z,13.75
2022-10-19T11:37:03.771Z,13.75
2022-10-19T11:38:20.555Z,13.75
2022-10-19T11:39:03.823Z,13.75
2022-10-19T11:40:03.818Z,13.81
2022-10-19T11:41:18.110Z,13.75
2022-10-19T11:42:03.904Z,13.69
2022-10-19T11:43:04.071Z,13.62
2022-10-19T11:44:04.159Z,13.62
2022-10-19T11:45:04.141Z,13.69
2022-10-19T11:46:04.217Z,13.69
2022-10-19T11:47:04.153Z,13.69
2022-10-19T11:48:04.229Z,13.75
2022-10-19T11:49:04.306Z,13.69
2022-10-19T11:50:04.385Z,13.69
2022-10-19T11:51:17.239Z,13.69
2022-10-19T11:52:04.463Z,13.69
2022-10-19T11:53:04.472Z,13.75
2022-10-19T11:54:04.379Z,13.75
2022-10-19T11:55:03.515Z,13.75
2022-10-19T11:56:03.503Z,13.75
2022-10-19T11:57:06.500Z,13.75
2022-10-19T11:58:03.745Z,13.75
2022-10-19T11:59:03.871Z,13.81
2022-10-19T12:00:08.402Z,13.81
2022-10-19T12:01:03.825Z,13.81
2022-10-19T12:02:03.836Z,13.88
2022-10-19T12:03:04.104Z,13.81
2022-10-19T12:04:03.900Z,13.81
2022-10-19T12:05:03.898Z,13.81
2022-10-19T12:06:03.905Z,13.88
2022-10-19T12:07:03.979Z,13.81
2022-10-19T12:08:04.063Z,13.88
2022-10-19T12:09:04.247Z,13.88
2022-10-19T12:10:04.060Z,13.88
2022-10-19T12:12:04.226Z,13.88
2022-10-19T12:13:04.307Z,13.81
2022-10-19T12:14:03.587Z,13.75
2022-10-19T12:15:03.580Z,13.75
2022-10-19T12:16:03.742Z,13.75
2022-10-19T12:17:03.914Z,13.81
2022-10-19T12:18:03.903Z,13.88
2022-10-19T12:19:03.829Z,13.81
2022-10-19T12:20:03.842Z,13.81
2022-10-19T12:21:03.827Z,13.81
2022-10-19T12:22:03.836Z,13.75
2022-10-19T12:23:03.989Z,13.81
2022-10-19T12:24:03.913Z,13.81
2022-10-19T12:25:03.913Z,13.88
2022-10-19T12:26:03.837Z,13.88
2022-10-19T12:27:03.831Z,13.94
2022-10-19T12:28:03.991Z,14.00
2022-10-19T12:29:03.985Z,13.94
2022-10-19T12:30:03.995Z,13.94
2022-10-19T12:31:03.989Z,13.94
2022-10-19T12:32:04.061Z,14.00
2022-10-19T12:33:04.224Z,14.00
2022-10-19T12:34:04.331Z,13.94
2022-10-19T12:35:04.307Z,14.00
2022-10-19T12:36:04.474Z,14.00
2022-10-19T12:37:04.466Z,14.00
2022-10-19T12:38:04.561Z,14.00
2022-10-19T12:39:03.512Z,13.94
2022-10-19T12:40:04.477Z,13.94
2022-10-19T12:41:04.482Z,13.88
2022-10-19T12:42:04.481Z,13.94
2022-10-19T12:43:04.383Z,13.88
2022-10-19T12:44:04.387Z,13.88
2022-10-19T12:45:04.474Z,13.94
2022-10-19T12:46:03.509Z,13.94
2022-10-19T12:47:03.624Z,13.94
2022-10-19T12:48:03.659Z,13.94
2022-10-19T12:49:03.640Z,13.88
2022-10-19T12:50:03.741Z,13.81
2022-10-19T12:51:03.833Z,13.81
2022-10-19T12:52:03.743Z,13.81
2022-10-19T12:53:03.821Z,13.81
2022-10-19T12:54:03.906Z,13.81